Osman Gyan

Scout - Hearts of Oak
4 Dez 2027
Samstag
Verarbeitung

Persönlichkeit

Anpassungsfähigkeit (11) Ehrgeiz (8) Kontroverse (1) Loyalität (16) Druck (14) Professionalität (18) Fairness (17) Temperament (10)

Profil

Trainerstil Demokratisch
Lizenz Nationale C
Entschlossenheit 12
Menschenführung 10
Motivation 10
Disziplin 12
Arbeitszufriedenheit
100%
Ermüdung
0%
Rolle Scout
Gehalt 48.2K p/W
Vertrag 30.06.2029

Leistung

Verhalten Gut
Trainingseffektivität
36%
Spielerentwicklung
40%
Verletzungsprävention
20%
Taktische Umsetzung
40%

Letzte Ereignisse

Spieler begutachtet jetzt
Nahm an einer Scouting-Besprechung teil jetzt
Empfahl ein Transferziel jetzt
Spieler begutachtet jetzt
Spiel beobachtet 7T her
Spiel beobachtet 7T her
Spiel beobachtet 7T her
Spieler begutachtet 7T her

Aktuell beobachtet

83
Spieler Verein Status Fähigkeit Vertrauen Beobachtet Zuletzt beobachtet Letzte Stimme
Christopher Richards Enyimba Aktiv 94 / 89 40% 2 03.12.2027 -
Bruno Leyes Godoy Cruz Aktiv 133 / 137 40% 2 03.12.2027 -
Agustín Araujo Trujillanos Aktiv 109 / 97 40% 1 03.12.2027 -
Juan Rocca Gimnasia y Tiro Aktiv 123 / 118 40% 5 02.12.2027 -
Agustín Hausch Caracas Aktiv 132 / 118 40% 5 02.12.2027 -
Joseph Atule Barau Aktiv 101 / 99 40% 3 02.12.2027 -
Francis Amuzu Grêmio Aktiv 129 / 140 40% 4 01.12.2027 -
Darwin Casseres Atletico Venezuela Aktiv 122 / 132 40% 2 01.12.2027 -
Bashar Resan Pakhtakor Aktiv 117 / 115 40% 1 01.12.2027 -
Imran Oulad Omar Dinamo Batumi Aktiv 120 / 131 40% 3 29.11.2027 -
Lucas Ríos Atlanta Aktiv 115 / 108 40% 3 29.11.2027 -
Gonzalo Flores Almirante Brown Aktiv 121 / 110 40% 1 29.11.2027 -
Johan Campaña Patriotas Aktiv 114 / 104 40% 2 28.11.2027 -
Patricio Moyano Defensores Aktiv 127 / 129 40% 3 28.11.2027 -
Axel Batista Quilmes Aktiv 120 / 111 40% 3 25.11.2027 -
Santiago Vera Almirante Brown Aktiv 125 / 111 40% 1 25.11.2027 -
Adalberto Peñaranda Deportivo Tachira Aktiv 125 / 115 40% 2 24.11.2027 -
Giorgi Arabidze Torpedo Kutaisi Aktiv 110 / 125 40% 2 24.11.2027 -
Elías Contreras Morón Aktiv 112 / 102 40% 1 24.11.2027 -
Facundo Altamira Godoy Cruz Aktiv 129 / 117 40% 4 23.11.2027 -
Leeroy Owusu HJK Aktiv 110 / 106 40% 3 23.11.2027 -
Marco Miori Alvarado Aktiv 120 / 122 40% 4 23.11.2027 -
Jonathan Cañete Portuguesa Aktiv 108 / 115 40% 3 22.11.2027 -
Santiago Gutiérrez Alvarado Aktiv 99 / 112 40% 1 22.11.2027 -
Federico Versaci Talleres Aktiv 117 / 107 40% 2 21.11.2027 -
Juan David Rueda Alianza Petrolera Aktiv 106 / 121 40% 1 21.11.2027 -
Matías Machado Racing Aktiv 112 / 113 40% 3 20.11.2027 -
Gianluca Pugliese Güemes Aktiv 115 / 114 40% 2 20.11.2027 -
Federico Pérez Agropecuario Argentino Aktiv 114 / 125 40% 2 19.11.2027 -
Gonzalo Abrego Godoy Cruz Aktiv 121 / 129 40% 1 19.11.2027 -
Ignacio Palacio All Boys Aktiv 113 / 116 40% 2 17.11.2027 -
Thomas Ortega Quilmes Aktiv 113 / 110 40% 1 14.11.2027 -
Chidiebere Nwobodo Rangers International Aktiv 95 / 106 40% 1 14.11.2027 -
Franco Cristaldo Talleres Aktiv 121 / 127 40% 7 13.11.2027 -
Franco Vedoya Central Norte Aktiv 111 / 116 40% 2 13.11.2027 -
Joel Ezra Enyimba Aktiv 96 / 95 40% 4 12.11.2027 -
Josephat Lopaga Kakamega Homeboyz Aktiv 85 / 87 40% 2 12.11.2027 -
Ramón González Almirante Brown Aktiv 108 / 108 40% 2 11.11.2027 -
Bryan Carvallo Cobresal Aktiv 111 / 119 40% 1 11.11.2027 -
Jhon Murillo America de Cali Aktiv 116 / 118 40% 1 09.11.2027 -
Thiago López Almagro Aktiv 102 / 106 40% 1 07.11.2027 -
Leonel Monti Racing Aktiv 108 / 106 40% 3 06.11.2027 -
Santiago Sala Güemes Aktiv 121 / 106 40% 1 06.11.2027 -
Martín García Atlanta Aktiv 114 / 122 40% 2 05.11.2027 -
Raúl Lozano Quilmes Aktiv 110 / 107 40% 1 05.11.2027 -
Carlos Gugenheim Almirante Brown Aktiv 124 / 115 40% 1 04.11.2027 -
Tomás Fernández Aldosivi Aktiv 122 / 106 40% 1 02.11.2027 -
Lewis Bandi Gor Mahia Aktiv 92 / 98 40% 1 01.11.2027 -
Esteban Beltrán Jaguares Aktiv 118 / 108 40% 1 31.10.2027 -
Juan Esteban Ávalo Aguilas Doradas Aktiv 115 / 103 40% 2 30.10.2027 -
Alisher Odilov Neftchi Aktiv 106 / 103 40% 1 27.10.2027 -
Franco Fagúndez Estudiantes Aktiv 121 / 123 40% 1 27.10.2027 -
Mateo Zuleta Once Caldas Aktiv 124 / 131 40% 1 26.10.2027 -
Lucio Castillo Colegiales Aktiv 115 / 106 40% 1 26.10.2027 -
Maico Quiroz Güemes Aktiv 115 / 122 40% 1 26.10.2027 -
Facundo Taborda Racing Aktiv 122 / 104 40% 1 23.10.2027 -
Enock Morrison Gor Mahia Aktiv 92 / 99 40% 2 21.10.2027 -
Nazareno Fernández Colombo Los Andes Aktiv 104 / 115 40% 1 21.10.2027 -
Marvin Nabwire Kenya Police Aktiv 84 / 97 40% 1 20.10.2027 -
Iñaki Larthirigoyen San Telmo Aktiv 115 / 132 40% 1 20.10.2027 -
Brian Farioli Estudiantes Aktiv 106 / 107 40% 2 19.10.2027 -
Nicolás Mosca Atlanta Aktiv 102 / 110 40% 1 16.10.2027 -
Rick Talleres Aktiv 120 / 131 40% 1 16.10.2027 -
Maximiliano Rueda Patronato Aktiv 104 / 101 40% 2 14.10.2027 -
Enzo González Defensores Aktiv 116 / 112 40% 2 08.10.2027 -
Matías Viguet Maipú Aktiv 111 / 108 40% 1 08.10.2027 -
Hakim Sulemana SJK Aktiv 102 / 104 40% 1 07.10.2027 -
Paul Agyei Heart of Lions Aktiv 80 / 80 30% 1 / 1m 06.10.2027 -
Augusto Berrondo Tristán Suárez Aktiv 108 / 121 40% 1 06.10.2027 -
Tiago Banega Gimnasia y Tiro Aktiv 120 / 113 40% 1 04.10.2027 -
Jeffrey Sulemana Hasaacas Bericht bereit 97 / 89 72% 1 26.07.2027 -
Kwame Addo WAFA Bericht bereit 82 / 94 72% 1 12.07.2027 -
Aaron Collins Milton Keynes Dons Verhandlung 114 / 115 40% 1 29.06.2027 -
Imrân Louza Watford Aktiv 144 / 122 40% 1 29.06.2027 -
Jack Lankester Crewe Alexandra Aktiv 105 / 93 40% 1 29.06.2027 -
Gladson Sulemana Liberty Professionals Bericht bereit 95 / 103 72% 1 28.06.2027 -
Augustus Kargbo Blackburn Rovers Aktiv 113 / 120 40% 1 24.06.2027 -
Shayne Lavery Cambridge United Aktiv 117 / 119 40% 1 24.06.2027 -
Dale Taylor Blackpool Aktiv 111 / 117 40% 1 24.06.2027 -
Newton Adebayo New Edubiase United Aktiv 97 / 96 72% 1 02.06.2027 Befürworten
Myles Peart-Harris Oxford United Aktiv 115 / 116 40% 1 31.05.2027 -
Josh Honohan Lincoln City Aktiv 106 / 97 40% 1 31.05.2027 -
Kanya Fujimoto Stevenage Aktiv 128 / 115 40% 1 31.05.2027 -